sensor_id;sensor_type;location;lat;lon;timestamp;temperature;humidity
75719;DHT22;64340;48.534;-3.036;2024-02-21T00:00:46;19.50;57.60
75719;DHT22;64340;48.534;-3.036;2024-02-21T00:03:12;19.50;57.60
75719;DHT22;64340;48.534;-3.036;2024-02-21T00:05:37;19.50;57.50
75719;DHT22;64340;48.534;-3.036;2024-02-21T00:08:03;19.50;57.40
75719;DHT22;64340;48.534;-3.036;2024-02-21T00:10:29;19.50;57.40
75719;DHT22;64340;48.534;-3.036;2024-02-21T00:12:57;19.40;57.50
75719;DHT22;64340;48.534;-3.036;2024-02-21T00:15:25;19.40;57.40
75719;DHT22;64340;48.534;-3.036;2024-02-21T00:17:50;19.50;57.40
75719;DHT22;64340;48.534;-3.036;2024-02-21T00:20:16;19.50;57.40
75719;DHT22;64340;48.534;-3.036;2024-02-21T00:22:43;19.40;57.50
75719;DHT22;64340;48.534;-3.036;2024-02-21T00:25:09;19.40;57.50
75719;DHT22;64340;48.534;-3.036;2024-02-21T00:27:35;19.40;57.40
75719;DHT22;64340;48.534;-3.036;2024-02-21T00:30:01;19.40;57.30
75719;DHT22;64340;48.534;-3.036;2024-02-21T00:32:27;19.30;57.40
75719;DHT22;64340;48.534;-3.036;2024-02-21T00:34:53;19.30;57.30
75719;DHT22;64340;48.534;-3.036;2024-02-21T00:37:19;19.30;57.30
75719;DHT22;64340;48.534;-3.036;2024-02-21T00:39:44;19.30;57.20
75719;DHT22;64340;48.534;-3.036;2024-02-21T00:42:10;19.30;57.30
75719;DHT22;64340;48.534;-3.036;2024-02-21T00:44:36;19.30;57.30
75719;DHT22;64340;48.534;-3.036;2024-02-21T00:47:01;19.20;57.30
75719;DHT22;64340;48.534;-3.036;2024-02-21T00:49:27;19.30;57.10
75719;DHT22;64340;48.534;-3.036;2024-02-21T00:51:53;19.30;57.10
75719;DHT22;64340;48.534;-3.036;2024-02-21T00:54:19;19.20;57.10
75719;DHT22;64340;48.534;-3.036;2024-02-21T00:56:44;19.20;57.10
75719;DHT22;64340;48.534;-3.036;2024-02-21T00:59:10;19.20;57.10
75719;DHT22;64340;48.534;-3.036;2024-02-21T01:01:36;19.20;57.10
75719;DHT22;64340;48.534;-3.036;2024-02-21T01:04:02;19.20;57.10
75719;DHT22;64340;48.534;-3.036;2024-02-21T01:06:27;19.20;57.10
75719;DHT22;64340;48.534;-3.036;2024-02-21T01:08:53;19.20;57.00
75719;DHT22;64340;48.534;-3.036;2024-02-21T01:11:19;19.10;57.00
75719;DHT22;64340;48.534;-3.036;2024-02-21T01:13:44;19.10;57.00
75719;DHT22;64340;48.534;-3.036;2024-02-21T01:16:10;19.10;57.00
75719;DHT22;64340;48.534;-3.036;2024-02-21T01:18:39;19.10;56.90
75719;DHT22;64340;48.534;-3.036;2024-02-21T01:21:06;19.10;57.00
75719;DHT22;64340;48.534;-3.036;2024-02-21T01:23:36;19.10;56.90
75719;DHT22;64340;48.534;-3.036;2024-02-21T01:26:02;19.10;57.00
75719;DHT22;64340;48.534;-3.036;2024-02-21T01:28:28;19.10;56.90
75719;DHT22;64340;48.534;-3.036;2024-02-21T01:30:54;19.00;56.90
75719;DHT22;64340;48.534;-3.036;2024-02-21T01:33:20;19.00;56.90
75719;DHT22;64340;48.534;-3.036;2024-02-21T01:35:46;19.00;56.90
75719;DHT22;64340;48.534;-3.036;2024-02-21T01:38:13;19.00;57.00
75719;DHT22;64340;48.534;-3.036;2024-02-21T01:40:38;19.00;57.00
75719;DHT22;64340;48.534;-3.036;2024-02-21T01:43:18;19.00;57.00
75719;DHT22;64340;48.534;-3.036;2024-02-21T01:45:48;19.00;56.90
75719;DHT22;64340;48.534;-3.036;2024-02-21T01:48:16;19.00;57.00
75719;DHT22;64340;48.534;-3.036;2024-02-21T01:50:43;19.00;56.90
75719;DHT22;64340;48.534;-3.036;2024-02-21T01:53:09;19.00;56.90
75719;DHT22;64340;48.534;-3.036;2024-02-21T01:55:35;19.00;56.90
75719;DHT22;64340;48.534;-3.036;2024-02-21T01:58:02;18.90;56.80
75719;DHT22;64340;48.534;-3.036;2024-02-21T02:00:28;18.90;56.90
75719;DHT22;64340;48.534;-3.036;2024-02-21T02:02:54;18.90;56.90
75719;DHT22;64340;48.534;-3.036;2024-02-21T02:05:20;18.90;56.90
75719;DHT22;64340;48.534;-3.036;2024-02-21T02:07:46;18.90;56.90
75719;DHT22;64340;48.534;-3.036;2024-02-21T02:10:12;18.90;56.90
75719;DHT22;64340;48.534;-3.036;2024-02-21T02:12:38;18.80;56.90
75719;DHT22;64340;48.534;-3.036;2024-02-21T02:15:04;18.90;56.90
75719;DHT22;64340;48.534;-3.036;2024-02-21T02:17:30;18.80;56.90
75719;DHT22;64340;48.534;-3.036;2024-02-21T02:19:56;18.80;56.80
75719;DHT22;64340;48.534;-3.036;2024-02-21T02:22:28;18.90;56.80
75719;DHT22;64340;48.534;-3.036;2024-02-21T02:24:54;18.80;56.80
75719;DHT22;64340;48.534;-3.036;2024-02-21T02:27:20;18.80;56.80
75719;DHT22;64340;48.534;-3.036;2024-02-21T02:29:45;18.80;56.70
75719;DHT22;64340;48.534;-3.036;2024-02-21T02:32:11;18.80;56.80
75719;DHT22;64340;48.534;-3.036;2024-02-21T02:34:39;18.80;56.70
75719;DHT22;64340;48.534;-3.036;2024-02-21T02:37:05;18.80;56.80
75719;DHT22;64340;48.534;-3.036;2024-02-21T02:39:30;18.70;56.90
75719;DHT22;64340;48.534;-3.036;2024-02-21T02:41:56;18.70;56.80
75719;DHT22;64340;48.534;-3.036;2024-02-21T02:44:22;18.70;56.80
75719;DHT22;64340;48.534;-3.036;2024-02-21T02:46:48;18.70;56.80
75719;DHT22;64340;48.534;-3.036;2024-02-21T02:49:13;18.70;56.80
75719;DHT22;64340;48.534;-3.036;2024-02-21T02:51:43;18.70;56.70
75719;DHT22;64340;48.534;-3.036;2024-02-21T02:54:09;18.70;56.80
75719;DHT22;64340;48.534;-3.036;2024-02-21T02:56:35;18.70;56.80
75719;DHT22;64340;48.534;-3.036;2024-02-21T02:59:01;18.70;56.80
75719;DHT22;64340;48.534;-3.036;2024-02-21T03:01:26;18.70;56.70
75719;DHT22;64340;48.534;-3.036;2024-02-21T03:03:53;18.70;56.70
75719;DHT22;64340;48.534;-3.036;2024-02-21T03:06:19;18.70;56.70
75719;DHT22;64340;48.534;-3.036;2024-02-21T03:08:45;18.60;56.70
75719;DHT22;64340;48.534;-3.036;2024-02-21T03:11:11;18.60;56.70
75719;DHT22;64340;48.534;-3.036;2024-02-21T03:13:36;18.60;56.80
75719;DHT22;64340;48.534;-3.036;2024-02-21T03:16:02;18.60;56.80
75719;DHT22;64340;48.534;-3.036;2024-02-21T03:18:28;18.60;56.90
75719;DHT22;64340;48.534;-3.036;2024-02-21T03:20:54;18.60;56.90
75719;DHT22;64340;48.534;-3.036;2024-02-21T03:23:19;18.60;56.90
75719;DHT22;64340;48.534;-3.036;2024-02-21T03:25:45;18.60;56.90
75719;DHT22;64340;48.534;-3.036;2024-02-21T03:28:11;18.60;56.90
75719;DHT22;64340;48.534;-3.036;2024-02-21T03:30:37;18.60;56.90
75719;DHT22;64340;48.534;-3.036;2024-02-21T03:33:03;18.60;56.90
75719;DHT22;64340;48.534;-3.036;2024-02-21T03:35:28;18.60;56.80
75719;DHT22;64340;48.534;-3.036;2024-02-21T03:37:54;18.60;56.80
75719;DHT22;64340;48.534;-3.036;2024-02-21T03:40:20;18.50;56.90
75719;DHT22;64340;48.534;-3.036;2024-02-21T03:42:46;18.50;57.10
75719;DHT22;64340;48.534;-3.036;2024-02-21T03:45:11;18.50;57.00
75719;DHT22;64340;48.534;-3.036;2024-02-21T03:47:37;18.50;56.90
75719;DHT22;64340;48.534;-3.036;2024-02-21T03:50:04;18.50;57.00
75719;DHT22;64340;48.534;-3.036;2024-02-21T03:52:30;18.50;57.00
75719;DHT22;64340;48.534;-3.036;2024-02-21T03:54:56;18.50;56.90
75719;DHT22;64340;48.534;-3.036;2024-02-21T03:57:21;18.50;56.90
75719;DHT22;64340;48.534;-3.036;2024-02-21T03:59:50;18.50;57.00
75719;DHT22;64340;48.534;-3.036;2024-02-21T04:02:16;18.50;57.00
75719;DHT22;64340;48.534;-3.036;2024-02-21T04:04:43;18.40;57.00
75719;DHT22;64340;48.534;-3.036;2024-02-21T04:07:12;18.50;56.90
75719;DHT22;64340;48.534;-3.036;2024-02-21T04:09:38;18.40;56.90
75719;DHT22;64340;48.534;-3.036;2024-02-21T04:12:04;18.40;56.90
75719;DHT22;64340;48.534;-3.036;2024-02-21T04:14:30;18.40;56.90
75719;DHT22;64340;48.534;-3.036;2024-02-21T04:16:55;18.40;56.90
75719;DHT22;64340;48.534;-3.036;2024-02-21T04:19:21;18.40;56.90
75719;DHT22;64340;48.534;-3.036;2024-02-21T04:21:47;18.40;56.90
75719;DHT22;64340;48.534;-3.036;2024-02-21T04:24:13;18.40;56.90
75719;DHT22;64340;48.534;-3.036;2024-02-21T04:26:38;18.30;56.90
75719;DHT22;64340;48.534;-3.036;2024-02-21T04:29:04;18.30;56.90
75719;DHT22;64340;48.534;-3.036;2024-02-21T04:31:32;18.30;57.00
75719;DHT22;64340;48.534;-3.036;2024-02-21T04:33:58;18.30;56.90
75719;DHT22;64340;48.534;-3.036;2024-02-21T04:36:24;18.30;56.90
75719;DHT22;64340;48.534;-3.036;2024-02-21T04:38:50;18.30;56.90
75719;DHT22;64340;48.534;-3.036;2024-02-21T04:41:15;18.30;56.90
75719;DHT22;64340;48.534;-3.036;2024-02-21T04:43:41;18.30;56.90
75719;DHT22;64340;48.534;-3.036;2024-02-21T04:46:07;18.30;56.90
75719;DHT22;64340;48.534;-3.036;2024-02-21T04:48:33;18.20;56.90
75719;DHT22;64340;48.534;-3.036;2024-02-21T04:50:58;18.20;57.00
75719;DHT22;64340;48.534;-3.036;2024-02-21T04:53:24;18.20;57.10
75719;DHT22;64340;48.534;-3.036;2024-02-21T04:55:50;18.20;57.10
75719;DHT22;64340;48.534;-3.036;2024-02-21T04:58:15;18.10;57.30
75719;DHT22;64340;48.534;-3.036;2024-02-21T05:00:41;18.20;57.20
75719;DHT22;64340;48.534;-3.036;2024-02-21T05:03:07;18.20;57.10
75719;DHT22;64340;48.534;-3.036;2024-02-21T05:05:32;18.20;57.20
75719;DHT22;64340;48.534;-3.036;2024-02-21T05:07:58;18.20;57.10
75719;DHT22;64340;48.534;-3.036;2024-02-21T05:10:24;18.20;57.10
75719;DHT22;64340;48.534;-3.036;2024-02-21T05:12:50;18.10;57.20
75719;DHT22;64340;48.534;-3.036;2024-02-21T05:15:15;18.00;57.70
75719;DHT22;64340;48.534;-3.036;2024-02-21T05:17:41;18.00;57.70
75719;DHT22;64340;48.534;-3.036;2024-02-21T05:20:08;18.10;57.50
75719;DHT22;64340;48.534;-3.036;2024-02-21T05:22:34;18.10;57.40
75719;DHT22;64340;48.534;-3.036;2024-02-21T05:25:00;18.00;57.50
75719;DHT22;64340;48.534;-3.036;2024-02-21T05:27:26;18.00;57.70
75719;DHT22;64340;48.534;-3.036;2024-02-21T05:29:53;18.00;57.80
75719;DHT22;64340;48.534;-3.036;2024-02-21T05:32:18;18.00;57.70
75719;DHT22;64340;48.534;-3.036;2024-02-21T05:34:44;18.00;57.60
75719;DHT22;64340;48.534;-3.036;2024-02-21T05:37:10;18.00;57.90
75719;DHT22;64340;48.534;-3.036;2024-02-21T05:39:35;18.00;58.00
75719;DHT22;64340;48.534;-3.036;2024-02-21T05:42:01;18.10;57.80
75719;DHT22;64340;48.534;-3.036;2024-02-21T05:44:27;18.10;57.80
75719;DHT22;64340;48.534;-3.036;2024-02-21T05:46:52;18.10;57.70
75719;DHT22;64340;48.534;-3.036;2024-02-21T05:49:18;18.10;57.80
75719;DHT22;64340;48.534;-3.036;2024-02-21T05:51:44;18.20;57.70
75719;DHT22;64340;48.534;-3.036;2024-02-21T05:54:09;18.20;57.60
75719;DHT22;64340;48.534;-3.036;2024-02-21T05:56:35;18.20;57.70
75719;DHT22;64340;48.534;-3.036;2024-02-21T05:59:01;18.20;57.70
75719;DHT22;64340;48.534;-3.036;2024-02-21T06:01:27;18.10;57.80
75719;DHT22;64340;48.534;-3.036;2024-02-21T06:03:53;18.10;57.70
75719;DHT22;64340;48.534;-3.036;2024-02-21T06:06:19;17.70;57.80
75719;DHT22;64340;48.534;-3.036;2024-02-21T06:08:47;17.30;58.40
75719;DHT22;64340;48.534;-3.036;2024-02-21T06:11:13;17.00;58.90
75719;DHT22;64340;48.534;-3.036;2024-02-21T06:13:40;16.90;59.30
75719;DHT22;64340;48.534;-3.036;2024-02-21T06:16:06;16.80;59.20
75719;DHT22;64340;48.534;-3.036;2024-02-21T06:18:34;16.80;59.40
75719;DHT22;64340;48.534;-3.036;2024-02-21T06:21:00;16.70;59.70
75719;DHT22;64340;48.534;-3.036;2024-02-21T06:23:26;16.60;59.90
75719;DHT22;64340;48.534;-3.036;2024-02-21T06:25:52;16.90;59.50
75719;DHT22;64340;48.534;-3.036;2024-02-21T06:28:17;17.20;59.70
75719;DHT22;64340;48.534;-3.036;2024-02-21T06:30:43;17.40;59.60
75719;DHT22;64340;48.534;-3.036;2024-02-21T06:33:09;17.50;60.20
75719;DHT22;64340;48.534;-3.036;2024-02-21T06:35:34;17.50;60.50
75719;DHT22;64340;48.534;-3.036;2024-02-21T06:38:00;17.50;60.60
75719;DHT22;64340;48.534;-3.036;2024-02-21T06:40:26;17.50;61.00
75719;DHT22;64340;48.534;-3.036;2024-02-21T06:42:51;17.60;60.70
75719;DHT22;64340;48.534;-3.036;2024-02-21T06:45:17;17.60;60.70
75719;DHT22;64340;48.534;-3.036;2024-02-21T06:47:43;17.70;60.70
75719;DHT22;64340;48.534;-3.036;2024-02-21T06:50:09;17.80;60.50
75719;DHT22;64340;48.534;-3.036;2024-02-21T06:52:36;17.80;60.30
75719;DHT22;64340;48.534;-3.036;2024-02-21T06:55:02;17.80;60.20
75719;DHT22;64340;48.534;-3.036;2024-02-21T06:57:29;17.80;60.10
75719;DHT22;64340;48.534;-3.036;2024-02-21T06:59:55;17.80;60.10
75719;DHT22;64340;48.534;-3.036;2024-02-21T07:02:20;17.80;60.00
75719;DHT22;64340;48.534;-3.036;2024-02-21T07:04:46;17.80;60.00
75719;DHT22;64340;48.534;-3.036;2024-02-21T07:07:12;17.80;60.00
75719;DHT22;64340;48.534;-3.036;2024-02-21T07:09:38;17.80;60.00
75719;DHT22;64340;48.534;-3.036;2024-02-21T07:12:04;17.80;59.80
75719;DHT22;64340;48.534;-3.036;2024-02-21T07:14:32;17.80;59.80
75719;DHT22;64340;48.534;-3.036;2024-02-21T07:16:58;17.80;59.80
75719;DHT22;64340;48.534;-3.036;2024-02-21T07:19:24;17.80;59.80
75719;DHT22;64340;48.534;-3.036;2024-02-21T07:21:50;17.80;59.80
75719;DHT22;64340;48.534;-3.036;2024-02-21T07:24:15;17.80;59.70
75719;DHT22;64340;48.534;-3.036;2024-02-21T07:26:42;17.80;59.70
75719;DHT22;64340;48.534;-3.036;2024-02-21T07:29:11;17.80;59.70
75719;DHT22;64340;48.534;-3.036;2024-02-21T07:31:41;17.80;59.70
75719;DHT22;64340;48.534;-3.036;2024-02-21T07:34:07;17.80;59.60
75719;DHT22;64340;48.534;-3.036;2024-02-21T07:36:32;17.80;59.60
75719;DHT22;64340;48.534;-3.036;2024-02-21T07:38:58;17.80;59.60
75719;DHT22;64340;48.534;-3.036;2024-02-21T07:41:25;17.70;59.60
75719;DHT22;64340;48.534;-3.036;2024-02-21T07:43:51;17.80;59.70
75719;DHT22;64340;48.534;-3.036;2024-02-21T07:46:18;17.50;60.10
75719;DHT22;64340;48.534;-3.036;2024-02-21T07:48:45;17.60;60.10
75719;DHT22;64340;48.534;-3.036;2024-02-21T07:51:11;17.50;60.20
75719;DHT22;64340;48.534;-3.036;2024-02-21T07:53:38;17.60;60.00
75719;DHT22;64340;48.534;-3.036;2024-02-21T07:56:04;17.60;60.10
75719;DHT22;64340;48.534;-3.036;2024-02-21T07:58:30;17.70;60.00
75719;DHT22;64340;48.534;-3.036;2024-02-21T08:00:55;17.60;60.10
75719;DHT22;64340;48.534;-3.036;2024-02-21T08:03:21;17.50;60.60
75719;DHT22;64340;48.534;-3.036;2024-02-21T08:05:48;17.50;60.50
75719;DHT22;64340;48.534;-3.036;2024-02-21T08:08:14;17.60;60.60
75719;DHT22;64340;48.534;-3.036;2024-02-21T08:10:45;17.50;61.30
75719;DHT22;64340;48.534;-3.036;2024-02-21T08:13:11;17.50;61.90
75719;DHT22;64340;48.534;-3.036;2024-02-21T08:15:37;17.50;61.70
75719;DHT22;64340;48.534;-3.036;2024-02-21T08:18:05;17.50;61.70
75719;DHT22;64340;48.534;-3.036;2024-02-21T08:20:31;17.80;61.10
75719;DHT22;64340;48.534;-3.036;2024-02-21T08:22:56;17.70;61.00
75719;DHT22;64340;48.534;-3.036;2024-02-21T08:25:22;17.70;60.80
75719;DHT22;64340;48.534;-3.036;2024-02-21T08:27:48;17.80;60.70
75719;DHT22;64340;48.534;-3.036;2024-02-21T08:30:14;17.80;60.80
75719;DHT22;64340;48.534;-3.036;2024-02-21T08:32:40;17.80;60.80
75719;DHT22;64340;48.534;-3.036;2024-02-21T08:35:06;17.80;60.70
75719;DHT22;64340;48.534;-3.036;2024-02-21T08:37:31;17.70;60.70
75719;DHT22;64340;48.534;-3.036;2024-02-21T08:39:57;17.60;61.40
75719;DHT22;64340;48.534;-3.036;2024-02-21T08:42:23;17.60;61.60
75719;DHT22;64340;48.534;-3.036;2024-02-21T08:44:49;17.50;62.50
75719;DHT22;64340;48.534;-3.036;2024-02-21T08:47:14;17.50;63.50
75719;DHT22;64340;48.534;-3.036;2024-02-21T08:49:40;17.60;63.50
75719;DHT22;64340;48.534;-3.036;2024-02-21T08:52:06;17.70;63.60
75719;DHT22;64340;48.534;-3.036;2024-02-21T08:54:32;17.60;63.60
75719;DHT22;64340;48.534;-3.036;2024-02-21T08:56:59;17.70;63.70
75719;DHT22;64340;48.534;-3.036;2024-02-21T08:59:24;17.50;64.40
75719;DHT22;64340;48.534;-3.036;2024-02-21T09:01:51;17.50;64.30
75719;DHT22;64340;48.534;-3.036;2024-02-21T09:04:20;17.80;63.90
75719;DHT22;64340;48.534;-3.036;2024-02-21T09:06:46;17.80;63.50
75719;DHT22;64340;48.534;-3.036;2024-02-21T09:09:12;17.80;63.50
75719;DHT22;64340;48.534;-3.036;2024-02-21T09:11:38;17.80;63.40
75719;DHT22;64340;48.534;-3.036;2024-02-21T09:14:05;17.80;63.20
75719;DHT22;64340;48.534;-3.036;2024-02-21T09:16:34;17.80;63.30
75719;DHT22;64340;48.534;-3.036;2024-02-21T09:18:59;17.90;62.90
75719;DHT22;64340;48.534;-3.036;2024-02-21T09:21:26;17.90;62.70
75719;DHT22;64340;48.534;-3.036;2024-02-21T09:23:52;17.80;62.70
75719;DHT22;64340;48.534;-3.036;2024-02-21T09:26:17;17.90;62.60
75719;DHT22;64340;48.534;-3.036;2024-02-21T09:28:44;17.90;62.50
75719;DHT22;64340;48.534;-3.036;2024-02-21T09:31:10;17.90;62.60
75719;DHT22;64340;48.534;-3.036;2024-02-21T09:33:36;17.90;62.70
75719;DHT22;64340;48.534;-3.036;2024-02-21T09:36:03;17.80;62.80
75719;DHT22;64340;48.534;-3.036;2024-02-21T09:38:31;17.80;62.90
75719;DHT22;64340;48.534;-3.036;2024-02-21T09:41:15;17.80;62.70
75719;DHT22;64340;48.534;-3.036;2024-02-21T09:43:44;17.90;62.70
75719;DHT22;64340;48.534;-3.036;2024-02-21T09:46:17;17.90;62.40
75719;DHT22;64340;48.534;-3.036;2024-02-21T09:51:12;17.80;62.50
75719;DHT22;64340;48.534;-3.036;2024-02-21T09:53:40;17.90;62.30
75719;DHT22;64340;48.534;-3.036;2024-02-21T09:56:10;17.80;62.30
75719;DHT22;64340;48.534;-3.036;2024-02-21T09:58:37;17.90;62.10
75719;DHT22;64340;48.534;-3.036;2024-02-21T10:01:03;17.80;62.20
75719;DHT22;64340;48.534;-3.036;2024-02-21T10:03:33;17.80;61.70
75719;DHT22;64340;48.534;-3.036;2024-02-21T10:05:59;17.70;62.20
75719;DHT22;64340;48.534;-3.036;2024-02-21T10:08:26;17.80;62.00
75719;DHT22;64340;48.534;-3.036;2024-02-21T10:10:52;17.70;61.90
75719;DHT22;64340;48.534;-3.036;2024-02-21T10:13:28;17.80;61.90
75719;DHT22;64340;48.534;-3.036;2024-02-21T10:16:07;17.80;61.60
75719;DHT22;64340;48.534;-3.036;2024-02-21T10:18:34;17.50;60.70
75719;DHT22;64340;48.534;-3.036;2024-02-21T10:21:07;16.90;61.90
75719;DHT22;64340;48.534;-3.036;2024-02-21T10:23:47;16.70;62.30
75719;DHT22;64340;48.534;-3.036;2024-02-21T10:26:14;16.70;62.40
75719;DHT22;64340;48.534;-3.036;2024-02-21T10:28:40;16.60;62.50
75719;DHT22;64340;48.534;-3.036;2024-02-21T10:31:21;16.50;62.70
75719;DHT22;64340;48.534;-3.036;2024-02-21T10:34:00;16.60;62.30
75719;DHT22;64340;48.534;-3.036;2024-02-21T10:36:28;16.50;62.50
75719;DHT22;64340;48.534;-3.036;2024-02-21T10:38:55;16.80;62.50
75719;DHT22;64340;48.534;-3.036;2024-02-21T10:41:21;17.00;62.20
75719;DHT22;64340;48.534;-3.036;2024-02-21T10:43:51;17.20;62.00
75719;DHT22;64340;48.534;-3.036;2024-02-21T10:46:21;17.30;61.80
75719;DHT22;64340;48.534;-3.036;2024-02-21T10:48:50;17.50;62.20
75719;DHT22;64340;48.534;-3.036;2024-02-21T10:51:19;17.50;61.10
75719;DHT22;64340;48.534;-3.036;2024-02-21T10:56:41;17.70;62.50
75719;DHT22;64340;48.534;-3.036;2024-02-21T10:59:07;17.80;61.10
75719;DHT22;64340;48.534;-3.036;2024-02-21T11:01:33;18.00;62.10
75719;DHT22;64340;48.534;-3.036;2024-02-21T11:04:05;18.10;61.90
75719;DHT22;64340;48.534;-3.036;2024-02-21T11:06:32;18.30;61.70
75719;DHT22;64340;48.534;-3.036;2024-02-21T11:11:28;18.50;61.60
75719;DHT22;64340;48.534;-3.036;2024-02-21T11:14:20;18.60;61.40
75719;DHT22;64340;48.534;-3.036;2024-02-21T11:16:46;18.70;61.30
75719;DHT22;64340;48.534;-3.036;2024-02-21T11:21:44;18.80;61.50
75719;DHT22;64340;48.534;-3.036;2024-02-21T11:24:09;18.80;61.90
75719;DHT22;64340;48.534;-3.036;2024-02-21T11:26:37;18.80;61.90
75719;DHT22;64340;48.534;-3.036;2024-02-21T11:29:03;18.80;61.80
75719;DHT22;64340;48.534;-3.036;2024-02-21T11:31:44;18.90;61.50
75719;DHT22;64340;48.534;-3.036;2024-02-21T11:34:18;18.90;61.50
75719;DHT22;64340;48.534;-3.036;2024-02-21T11:36:51;18.90;61.70
75719;DHT22;64340;48.534;-3.036;2024-02-21T11:39:25;19.00;61.30
75719;DHT22;64340;48.534;-3.036;2024-02-21T11:42:01;19.00;61.00
75719;DHT22;64340;48.534;-3.036;2024-02-21T11:44:27;19.00;61.00
75719;DHT22;64340;48.534;-3.036;2024-02-21T11:46:52;19.00;61.60
75719;DHT22;64340;48.534;-3.036;2024-02-21T11:49:18;19.20;61.00
75719;DHT22;64340;48.534;-3.036;2024-02-21T11:51:44;19.30;60.70
75719;DHT22;64340;48.534;-3.036;2024-02-21T11:54:11;19.40;60.50
75719;DHT22;64340;48.534;-3.036;2024-02-21T11:56:38;19.40;60.40
75719;DHT22;64340;48.534;-3.036;2024-02-21T11:59:04;19.40;60.30
75719;DHT22;64340;48.534;-3.036;2024-02-21T12:01:32;19.40;60.40
75719;DHT22;64340;48.534;-3.036;2024-02-21T12:03:57;19.50;60.30
75719;DHT22;64340;48.534;-3.036;2024-02-21T12:06:23;19.50;60.30
75719;DHT22;64340;48.534;-3.036;2024-02-21T12:08:49;19.50;60.20
75719;DHT22;64340;48.534;-3.036;2024-02-21T12:11:23;19.50;60.20
75719;DHT22;64340;48.534;-3.036;2024-02-21T12:14:03;19.50;59.90
75719;DHT22;64340;48.534;-3.036;2024-02-21T12:16:31;19.50;60.20
75719;DHT22;64340;48.534;-3.036;2024-02-21T12:18:57;19.40;60.40
75719;DHT22;64340;48.534;-3.036;2024-02-21T12:21:33;19.20;60.70
75719;DHT22;64340;48.534;-3.036;2024-02-21T12:24:22;19.40;60.30
75719;DHT22;64340;48.534;-3.036;2024-02-21T12:26:51;19.50;60.00
75719;DHT22;64340;48.534;-3.036;2024-02-21T12:29:20;19.60;59.80
75719;DHT22;64340;48.534;-3.036;2024-02-21T12:31:47;19.50;59.90
75719;DHT22;64340;48.534;-3.036;2024-02-21T12:34:13;19.60;59.90
75719;DHT22;64340;48.534;-3.036;2024-02-21T12:36:45;19.60;60.00
75719;DHT22;64340;48.534;-3.036;2024-02-21T12:39:14;19.70;59.70
75719;DHT22;64340;48.534;-3.036;2024-02-21T12:41:40;19.70;59.70
75719;DHT22;64340;48.534;-3.036;2024-02-21T12:44:07;19.70;59.90
75719;DHT22;64340;48.534;-3.036;2024-02-21T12:46:36;19.80;59.70
75719;DHT22;64340;48.534;-3.036;2024-02-21T12:49:03;19.80;59.70
75719;DHT22;64340;48.534;-3.036;2024-02-21T12:51:32;19.80;59.80
75719;DHT22;64340;48.534;-3.036;2024-02-21T12:53:58;19.70;59.80
75719;DHT22;64340;48.534;-3.036;2024-02-21T12:56:25;19.90;59.70
75719;DHT22;64340;48.534;-3.036;2024-02-21T12:58:53;19.90;59.60
75719;DHT22;64340;48.534;-3.036;2024-02-21T13:01:19;19.90;59.60
75719;DHT22;64340;48.534;-3.036;2024-02-21T13:03:45;20.00;59.50
75719;DHT22;64340;48.534;-3.036;2024-02-21T13:06:12;20.00;59.30
75719;DHT22;64340;48.534;-3.036;2024-02-21T13:08:38;20.00;59.20
75719;DHT22;64340;48.534;-3.036;2024-02-21T13:11:04;19.90;59.50
75719;DHT22;64340;48.534;-3.036;2024-02-21T13:13:30;19.90;59.60
75719;DHT22;64340;48.534;-3.036;2024-02-21T13:15:56;20.00;59.50
75719;DHT22;64340;48.534;-3.036;2024-02-21T13:18:22;19.90;59.50
75719;DHT22;64340;48.534;-3.036;2024-02-21T13:20:48;19.90;59.70
75719;DHT22;64340;48.534;-3.036;2024-02-21T13:23:13;19.90;59.50
75719;DHT22;64340;48.534;-3.036;2024-02-21T13:25:39;19.80;59.80
75719;DHT22;64340;48.534;-3.036;2024-02-21T13:28:05;19.90;59.60
75719;DHT22;64340;48.534;-3.036;2024-02-21T13:30:31;20.00;59.20
75719;DHT22;64340;48.534;-3.036;2024-02-21T13:32:56;20.10;59.10
75719;DHT22;64340;48.534;-3.036;2024-02-21T13:35:22;20.00;59.40
75719;DHT22;64340;48.534;-3.036;2024-02-21T13:37:48;20.10;59.10
75719;DHT22;64340;48.534;-3.036;2024-02-21T13:40:15;20.00;59.40
75719;DHT22;64340;48.534;-3.036;2024-02-21T13:42:41;20.00;59.10
75719;DHT22;64340;48.534;-3.036;2024-02-21T13:45:09;20.00;59.40
75719;DHT22;64340;48.534;-3.036;2024-02-21T13:47:35;19.90;59.50
75719;DHT22;64340;48.534;-3.036;2024-02-21T13:50:07;19.90;59.60
75719;DHT22;64340;48.534;-3.036;2024-02-21T13:52:37;20.00;59.20
75719;DHT22;64340;48.534;-3.036;2024-02-21T13:55:03;19.90;59.40
75719;DHT22;64340;48.534;-3.036;2024-02-21T13:57:29;19.90;59.50
75719;DHT22;64340;48.534;-3.036;2024-02-21T13:59:55;19.90;59.40
75719;DHT22;64340;48.534;-3.036;2024-02-21T14:02:20;19.90;59.40
75719;DHT22;64340;48.534;-3.036;2024-02-21T14:04:47;19.80;59.70
75719;DHT22;64340;48.534;-3.036;2024-02-21T14:07:13;19.70;60.00
75719;DHT22;64340;48.534;-3.036;2024-02-21T14:09:38;19.70;59.70
75719;DHT22;64340;48.534;-3.036;2024-02-21T14:12:04;19.70;59.70
75719;DHT22;64340;48.534;-3.036;2024-02-21T14:14:34;19.70;60.00
75719;DHT22;64340;48.534;-3.036;2024-02-21T14:17:00;19.70;60.10
75719;DHT22;64340;48.534;-3.036;2024-02-21T14:19:25;19.70;60.20
75719;DHT22;64340;48.534;-3.036;2024-02-21T14:21:51;19.70;60.10
75719;DHT22;64340;48.534;-3.036;2024-02-21T14:24:18;19.80;59.80
75719;DHT22;64340;48.534;-3.036;2024-02-21T14:26:44;20.00;59.60
75719;DHT22;64340;48.534;-3.036;2024-02-21T14:29:10;19.90;59.70
75719;DHT22;64340;48.534;-3.036;2024-02-21T14:31:35;19.90;59.90
75719;DHT22;64340;48.534;-3.036;2024-02-21T14:34:01;19.90;59.90
75719;DHT22;64340;48.534;-3.036;2024-02-21T14:36:28;20.00;59.50
75719;DHT22;64340;48.534;-3.036;2024-02-21T14:38:54;20.10;59.30
75719;DHT22;64340;48.534;-3.036;2024-02-21T14:41:19;20.20;59.20
75719;DHT22;64340;48.534;-3.036;2024-02-21T14:43:45;20.10;59.30
75719;DHT22;64340;48.534;-3.036;2024-02-21T14:46:12;20.30;59.10
75719;DHT22;64340;48.534;-3.036;2024-02-21T14:48:38;20.20;59.40
75719;DHT22;64340;48.534;-3.036;2024-02-21T14:51:04;20.20;59.30
75719;DHT22;64340;48.534;-3.036;2024-02-21T14:53:30;20.30;59.20
75719;DHT22;64340;48.534;-3.036;2024-02-21T14:55:56;20.20;59.50
75719;DHT22;64340;48.534;-3.036;2024-02-21T14:58:23;20.30;59.30
75719;DHT22;64340;48.534;-3.036;2024-02-21T15:00:49;20.40;59.00
75719;DHT22;64340;48.534;-3.036;2024-02-21T15:03:18;20.50;58.90
75719;DHT22;64340;48.534;-3.036;2024-02-21T15:05:47;20.50;59.00
75719;DHT22;64340;48.534;-3.036;2024-02-21T15:08:13;20.50;59.00
75719;DHT22;64340;48.534;-3.036;2024-02-21T15:10:42;20.50;58.80
75719;DHT22;64340;48.534;-3.036;2024-02-21T15:13:08;20.60;58.70
75719;DHT22;64340;48.534;-3.036;2024-02-21T15:15:34;20.60;58.80
75719;DHT22;64340;48.534;-3.036;2024-02-21T15:18:00;20.60;58.80
75719;DHT22;64340;48.534;-3.036;2024-02-21T15:20:25;20.70;58.60
75719;DHT22;64340;48.534;-3.036;2024-02-21T15:22:53;20.70;58.70